sensor_id;sensor_type;location;lat;lon;timestamp;temperature;humidity
27823;DHT22;29019;47.630;8.262;2023-02-15T00:02:01;19.20;31.80
27823;DHT22;29019;47.630;8.262;2023-02-15T00:06:01;19.10;31.80
27823;DHT22;29019;47.630;8.262;2023-02-15T00:10:02;19.10;31.90
27823;DHT22;29019;47.630;8.262;2023-02-15T00:14:04;19.10;31.90
27823;DHT22;29019;47.630;8.262;2023-02-15T00:18:04;19.10;31.90
27823;DHT22;29019;47.630;8.262;2023-02-15T00:22:05;19.10;31.90
27823;DHT22;29019;47.630;8.262;2023-02-15T00:26:14;19.00;31.80
27823;DHT22;29019;47.630;8.262;2023-02-15T00:30:15;19.00;31.80
27823;DHT22;29019;47.630;8.262;2023-02-15T00:34:16;19.00;31.80
27823;DHT22;29019;47.630;8.262;2023-02-15T00:38:17;18.90;31.90
27823;DHT22;29019;47.630;8.262;2023-02-15T00:42:17;18.90;31.80
27823;DHT22;29019;47.630;8.262;2023-02-15T00:46:18;18.90;31.80
27823;DHT22;29019;47.630;8.262;2023-02-15T00:50:18;18.90;31.90
27823;DHT22;29019;47.630;8.262;2023-02-15T00:54:19;18.90;31.90
27823;DHT22;29019;47.630;8.262;2023-02-15T00:58:19;18.80;31.90
27823;DHT22;29019;47.630;8.262;2023-02-15T01:02:20;18.80;31.90
27823;DHT22;29019;47.630;8.262;2023-02-15T01:06:20;18.80;31.80
27823;DHT22;29019;47.630;8.262;2023-02-15T01:10:21;18.80;31.90
27823;DHT22;29019;47.630;8.262;2023-02-15T01:14:21;18.80;31.90
27823;DHT22;29019;47.630;8.262;2023-02-15T01:18:22;18.70;31.80
27823;DHT22;29019;47.630;8.262;2023-02-15T01:22:22;18.70;31.90
27823;DHT22;29019;47.630;8.262;2023-02-15T01:26:23;18.70;31.90
27823;DHT22;29019;47.630;8.262;2023-02-15T01:30:23;18.70;31.90
27823;DHT22;29019;47.630;8.262;2023-02-15T01:34:23;18.60;31.90
27823;DHT22;29019;47.630;8.262;2023-02-15T01:38:24;18.60;31.90
27823;DHT22;29019;47.630;8.262;2023-02-15T01:42:24;18.70;32.00
27823;DHT22;29019;47.630;8.262;2023-02-15T01:46:35;18.60;32.00
27823;DHT22;29019;47.630;8.262;2023-02-15T01:50:38;18.60;32.00
27823;DHT22;29019;47.630;8.262;2023-02-15T01:54:39;18.60;32.00
27823;DHT22;29019;47.630;8.262;2023-02-15T01:58:41;18.50;32.00
27823;DHT22;29019;47.630;8.262;2023-02-15T02:02:42;18.60;32.00
27823;DHT22;29019;47.630;8.262;2023-02-15T02:06:44;18.60;32.00
27823;DHT22;29019;47.630;8.262;2023-02-15T02:10:46;18.50;32.00
27823;DHT22;29019;47.630;8.262;2023-02-15T02:14:47;18.50;32.00
27823;DHT22;29019;47.630;8.262;2023-02-15T02:18:52;18.50;32.00
27823;DHT22;29019;47.630;8.262;2023-02-15T02:27:06;18.40;32.00
27823;DHT22;29019;47.630;8.262;2023-02-15T02:35:30;18.40;32.00
27823;DHT22;29019;47.630;8.262;2023-02-15T02:39:37;18.40;32.00
27823;DHT22;29019;47.630;8.262;2023-02-15T02:48:13;18.40;32.00
27823;DHT22;29019;47.630;8.262;2023-02-15T02:56:34;18.30;32.00
27823;DHT22;29019;47.630;8.262;2023-02-15T03:00:53;18.30;32.00
27823;DHT22;29019;47.630;8.262;2023-02-15T03:04:55;18.20;32.00
27823;DHT22;29019;47.630;8.262;2023-02-15T03:09:06;18.20;32.00
27823;DHT22;29019;47.630;8.262;2023-02-15T03:13:14;18.20;32.50
27823;DHT22;29019;47.630;8.262;2023-02-15T03:17:15;18.20;32.00
27823;DHT22;29019;47.630;8.262;2023-02-15T03:21:17;18.20;32.00
27823;DHT22;29019;47.630;8.262;2023-02-15T03:25:22;18.20;32.00
27823;DHT22;29019;47.630;8.262;2023-02-15T03:29:24;18.20;32.00
27823;DHT22;29019;47.630;8.262;2023-02-15T03:33:26;18.20;32.00
27823;DHT22;29019;47.630;8.262;2023-02-15T03:37:35;18.10;31.90
27823;DHT22;29019;47.630;8.262;2023-02-15T03:41:39;18.10;32.00
27823;DHT22;29019;47.630;8.262;2023-02-15T03:45:42;18.10;32.00
27823;DHT22;29019;47.630;8.262;2023-02-15T03:49:55;18.10;32.00
27823;DHT22;29019;47.630;8.262;2023-02-15T03:53:58;18.10;32.00
27823;DHT22;29019;47.630;8.262;2023-02-15T03:57:59;18.10;32.00
27823;DHT22;29019;47.630;8.262;2023-02-15T04:02:20;18.10;32.00
27823;DHT22;29019;47.630;8.262;2023-02-15T04:06:22;18.00;32.00
27823;DHT22;29019;47.630;8.262;2023-02-15T04:10:22;18.00;32.00
27823;DHT22;29019;47.630;8.262;2023-02-15T04:14:41;18.00;32.00
27823;DHT22;29019;47.630;8.262;2023-02-15T04:19:00;18.00;32.00
27823;DHT22;29019;47.630;8.262;2023-02-15T04:23:19;18.00;32.00
27823;DHT22;29019;47.630;8.262;2023-02-15T04:27:39;18.00;32.00
27823;DHT22;29019;47.630;8.262;2023-02-15T04:31:39;18.00;32.00
27823;DHT22;29019;47.630;8.262;2023-02-15T04:35:40;17.90;32.00
27823;DHT22;29019;47.630;8.262;2023-02-15T04:39:40;17.90;32.00
27823;DHT22;29019;47.630;8.262;2023-02-15T04:43:41;17.90;32.00
27823;DHT22;29019;47.630;8.262;2023-02-15T04:47:41;17.90;32.00
27823;DHT22;29019;47.630;8.262;2023-02-15T04:51:42;17.90;32.00
27823;DHT22;29019;47.630;8.262;2023-02-15T04:55:42;17.90;32.00
27823;DHT22;29019;47.630;8.262;2023-02-15T04:59:42;17.90;32.00
27823;DHT22;29019;47.630;8.262;2023-02-15T05:03:43;17.90;31.90
27823;DHT22;29019;47.630;8.262;2023-02-15T05:07:43;17.90;32.00
27823;DHT22;29019;47.630;8.262;2023-02-15T05:11:44;17.90;32.00
27823;DHT22;29019;47.630;8.262;2023-02-15T05:15:51;18.00;31.90
27823;DHT22;29019;47.630;8.262;2023-02-15T05:19:52;18.20;31.90
27823;DHT22;29019;47.630;8.262;2023-02-15T05:23:52;18.30;31.80
27823;DHT22;29019;47.630;8.262;2023-02-15T05:27:53;18.40;31.60
27823;DHT22;29019;47.630;8.262;2023-02-15T05:32:12;18.50;31.60
27823;DHT22;29019;47.630;8.262;2023-02-15T05:36:13;18.60;31.40
27823;DHT22;29019;47.630;8.262;2023-02-15T05:40:14;18.70;31.40
27823;DHT22;29019;47.630;8.262;2023-02-15T05:44:14;18.80;31.30
27823;DHT22;29019;47.630;8.262;2023-02-15T05:48:15;18.90;31.40
27823;DHT22;29019;47.630;8.262;2023-02-15T05:52:15;18.90;31.20
27823;DHT22;29019;47.630;8.262;2023-02-15T05:56:16;19.00;31.20
27823;DHT22;29019;47.630;8.262;2023-02-15T06:00:17;19.10;31.20
27823;DHT22;29019;47.630;8.262;2023-02-15T06:04:18;19.10;31.20
27823;DHT22;29019;47.630;8.262;2023-02-15T06:08:18;19.10;31.20
27823;DHT22;29019;47.630;8.262;2023-02-15T06:12:19;19.20;31.20
27823;DHT22;29019;47.630;8.262;2023-02-15T06:16:19;19.20;31.10
27823;DHT22;29019;47.630;8.262;2023-02-15T06:20:20;19.30;31.10
27823;DHT22;29019;47.630;8.262;2023-02-15T06:24:20;19.30;31.10
27823;DHT22;29019;47.630;8.262;2023-02-15T06:28:21;19.30;31.10
27823;DHT22;29019;47.630;8.262;2023-02-15T06:32:21;19.30;31.00
27823;DHT22;29019;47.630;8.262;2023-02-15T06:36:21;19.40;31.00
27823;DHT22;29019;47.630;8.262;2023-02-15T06:40:22;19.50;31.00
27823;DHT22;29019;47.630;8.262;2023-02-15T06:44:22;19.50;31.00
27823;DHT22;29019;47.630;8.262;2023-02-15T06:48:23;19.50;31.00
27823;DHT22;29019;47.630;8.262;2023-02-15T06:52:23;19.50;31.00
27823;DHT22;29019;47.630;8.262;2023-02-15T06:56:24;19.60;31.00
27823;DHT22;29019;47.630;8.262;2023-02-15T07:00:24;19.60;31.00
27823;DHT22;29019;47.630;8.262;2023-02-15T07:04:25;19.60;30.90
27823;DHT22;29019;47.630;8.262;2023-02-15T07:08:25;19.60;30.90
27823;DHT22;29019;47.630;8.262;2023-02-15T07:12:26;19.60;30.90
27823;DHT22;29019;47.630;8.262;2023-02-15T07:16:42;19.60;30.90
27823;DHT22;29019;47.630;8.262;2023-02-15T07:20:43;19.70;30.90
27823;DHT22;29019;47.630;8.262;2023-02-15T07:24:43;19.70;30.90
27823;DHT22;29019;47.630;8.262;2023-02-15T07:28:44;19.70;30.90
27823;DHT22;29019;47.630;8.262;2023-02-15T07:32:44;19.70;30.80
27823;DHT22;29019;47.630;8.262;2023-02-15T07:37:04;19.70;30.80
27823;DHT22;29019;47.630;8.262;2023-02-15T07:41:06;19.60;30.70
27823;DHT22;29019;47.630;8.262;2023-02-15T07:45:07;19.60;30.80
27823;DHT22;29019;47.630;8.262;2023-02-15T07:49:08;19.50;30.80
27823;DHT22;29019;47.630;8.262;2023-02-15T07:53:08;19.50;30.80
27823;DHT22;29019;47.630;8.262;2023-02-15T07:57:09;19.50;30.80
27823;DHT22;29019;47.630;8.262;2023-02-15T08:01:09;19.40;30.80
27823;DHT22;29019;47.630;8.262;2023-02-15T08:05:10;19.40;30.80
27823;DHT22;29019;47.630;8.262;2023-02-15T08:09:11;19.30;31.30
27823;DHT22;29019;47.630;8.262;2023-02-15T08:13:11;19.30;30.90
27823;DHT22;29019;47.630;8.262;2023-02-15T08:17:12;19.20;30.80
27823;DHT22;29019;47.630;8.262;2023-02-15T08:21:12;19.20;30.90
27823;DHT22;29019;47.630;8.262;2023-02-15T08:25:13;19.20;31.00
27823;DHT22;29019;47.630;8.262;2023-02-15T08:29:14;19.20;31.00
27823;DHT22;29019;47.630;8.262;2023-02-15T08:33:15;19.10;31.00
27823;DHT22;29019;47.630;8.262;2023-02-15T08:37:18;19.00;31.10
27823;DHT22;29019;47.630;8.262;2023-02-15T08:41:22;19.00;31.10
27823;DHT22;29019;47.630;8.262;2023-02-15T08:45:22;19.00;31.10
27823;DHT22;29019;47.630;8.262;2023-02-15T08:49:25;18.90;31.20
27823;DHT22;29019;47.630;8.262;2023-02-15T08:53:25;18.90;31.20
27823;DHT22;29019;47.630;8.262;2023-02-15T08:57:26;18.80;31.30
27823;DHT22;29019;47.630;8.262;2023-02-15T09:01:28;18.80;31.30
27823;DHT22;29019;47.630;8.262;2023-02-15T09:05:29;18.80;31.30
27823;DHT22;29019;47.630;8.262;2023-02-15T09:09:29;18.80;31.30
27823;DHT22;29019;47.630;8.262;2023-02-15T09:13:31;18.80;31.40
27823;DHT22;29019;47.630;8.262;2023-02-15T09:17:31;18.70;31.40
27823;DHT22;29019;47.630;8.262;2023-02-15T09:21:33;18.70;31.30
27823;DHT22;29019;47.630;8.262;2023-02-15T09:25:35;18.70;31.40
27823;DHT22;29019;47.630;8.262;2023-02-15T09:29:35;18.70;31.40
27823;DHT22;29019;47.630;8.262;2023-02-15T09:33:36;18.70;31.40
27823;DHT22;29019;47.630;8.262;2023-02-15T09:37:37;18.70;31.40
27823;DHT22;29019;47.630;8.262;2023-02-15T09:41:46;18.70;31.40
27823;DHT22;29019;47.630;8.262;2023-02-15T09:45:54;18.60;31.40
27823;DHT22;29019;47.630;8.262;2023-02-15T10:15:14;18.60;31.50
27823;DHT22;29019;47.630;8.262;2023-02-15T10:27:22;18.50;31.50
27823;DHT22;29019;47.630;8.262;2023-02-15T10:31:23;18.50;31.60
27823;DHT22;29019;47.630;8.262;2023-02-15T10:35:34;18.50;31.60
27823;DHT22;29019;47.630;8.262;2023-02-15T10:39:48;18.50;31.60
27823;DHT22;29019;47.630;8.262;2023-02-15T11:00:45;18.40;31.50
27823;DHT22;29019;47.630;8.262;2023-02-15T11:04:55;18.40;31.50
27823;DHT22;29019;47.630;8.262;2023-02-15T11:09:03;18.40;31.50
27823;DHT22;29019;47.630;8.262;2023-02-15T11:13:12;18.40;31.50
27823;DHT22;29019;47.630;8.262;2023-02-15T11:17:15;18.40;31.50
27823;DHT22;29019;47.630;8.262;2023-02-15T11:21:17;18.40;31.50
27823;DHT22;29019;47.630;8.262;2023-02-15T11:25:23;18.40;32.10
27823;DHT22;29019;47.630;8.262;2023-02-15T11:29:29;18.40;31.50
27823;DHT22;29019;47.630;8.262;2023-02-15T11:33:34;18.40;31.50
27823;DHT22;29019;47.630;8.262;2023-02-15T11:37:44;18.40;31.50
27823;DHT22;29019;47.630;8.262;2023-02-15T11:41:50;18.40;31.50
27823;DHT22;29019;47.630;8.262;2023-02-15T11:45:54;18.40;31.50
27823;DHT22;29019;47.630;8.262;2023-02-15T11:49:54;18.30;31.50
27823;DHT22;29019;47.630;8.262;2023-02-15T11:53:55;18.40;31.60
27823;DHT22;29019;47.630;8.262;2023-02-15T11:58:01;18.30;31.50
27823;DHT22;29019;47.630;8.262;2023-02-15T12:02:07;18.30;31.60
27823;DHT22;29019;47.630;8.262;2023-02-15T12:06:29;18.30;31.60
27823;DHT22;29019;47.630;8.262;2023-02-15T12:10:38;18.30;31.60
27823;DHT22;29019;47.630;8.262;2023-02-15T12:14:47;18.30;31.60
27823;DHT22;29019;47.630;8.262;2023-02-15T12:18:48;18.30;31.60
27823;DHT22;29019;47.630;8.262;2023-02-15T12:22:59;18.30;31.60
27823;DHT22;29019;47.630;8.262;2023-02-15T12:27:03;18.30;31.60
27823;DHT22;29019;47.630;8.262;2023-02-15T12:31:21;18.30;31.60
27823;DHT22;29019;47.630;8.262;2023-02-15T12:35:27;18.30;31.60
27823;DHT22;29019;47.630;8.262;2023-02-15T12:39:29;18.30;31.60
27823;DHT22;29019;47.630;8.262;2023-02-15T12:43:32;18.30;31.60
27823;DHT22;29019;47.630;8.262;2023-02-15T12:47:33;18.30;31.60
27823;DHT22;29019;47.630;8.262;2023-02-15T12:51:46;18.30;31.60
27823;DHT22;29019;47.630;8.262;2023-02-15T12:55:55;18.30;31.70
27823;DHT22;29019;47.630;8.262;2023-02-15T13:07:57;18.30;31.70
27823;DHT22;29019;47.630;8.262;2023-02-15T13:12:11;18.30;31.60
27823;DHT22;29019;47.630;8.262;2023-02-15T13:16:12;18.30;31.70
27823;DHT22;29019;47.630;8.262;2023-02-15T13:20:19;18.30;31.70
27823;DHT22;29019;47.630;8.262;2023-02-15T13:24:27;18.30;31.70
27823;DHT22;29019;47.630;8.262;2023-02-15T13:28:37;18.30;31.70
27823;DHT22;29019;47.630;8.262;2023-02-15T13:32:39;18.30;31.70
27823;DHT22;29019;47.630;8.262;2023-02-15T13:36:47;18.30;31.80
27823;DHT22;29019;47.630;8.262;2023-02-15T13:40:55;18.30;31.80
27823;DHT22;29019;47.630;8.262;2023-02-15T13:49:27;18.30;31.80
27823;DHT22;29019;47.630;8.262;2023-02-15T13:53:42;18.30;31.80
27823;DHT22;29019;47.630;8.262;2023-02-15T14:02:18;18.30;31.80
27823;DHT22;29019;47.630;8.262;2023-02-15T14:06:25;18.30;31.80
27823;DHT22;29019;47.630;8.262;2023-02-15T14:10:42;18.30;31.80
27823;DHT22;29019;47.630;8.262;2023-02-15T14:27:08;18.30;31.80
27823;DHT22;29019;47.630;8.262;2023-02-15T14:31:10;18.30;31.90
27823;DHT22;29019;47.630;8.262;2023-02-15T14:35:15;18.30;32.00
27823;DHT22;29019;47.630;8.262;2023-02-15T14:39:22;18.20;31.90
27823;DHT22;29019;47.630;8.262;2023-02-15T14:48:01;18.30;31.90
27823;DHT22;29019;47.630;8.262;2023-02-15T14:52:04;18.30;32.00
27823;DHT22;29019;47.630;8.262;2023-02-15T15:00:30;18.20;31.90
27823;DHT22;29019;47.630;8.262;2023-02-15T15:08:36;18.20;31.90
27823;DHT22;29019;47.630;8.262;2023-02-15T15:12:37;18.20;32.00
27823;DHT22;29019;47.630;8.262;2023-02-15T15:20:40;18.20;32.00
27823;DHT22;29019;47.630;8.262;2023-02-15T15:32:45;18.20;32.50
27823;DHT22;29019;47.630;8.262;2023-02-15T15:41:03;18.20;32.00
27823;DHT22;29019;47.630;8.262;2023-02-15T15:49:33;18.20;32.10
27823;DHT22;29019;47.630;8.262;2023-02-15T15:53:38;18.20;32.10
27823;DHT22;29019;47.630;8.262;2023-02-15T15:57:42;18.10;32.00
27823;DHT22;29019;47.630;8.262;2023-02-15T16:01:43;18.20;32.10
27823;DHT22;29019;47.630;8.262;2023-02-15T16:05:44;18.10;32.10
27823;DHT22;29019;47.630;8.262;2023-02-15T16:13:54;18.20;32.30
27823;DHT22;29019;47.630;8.262;2023-02-15T16:17:55;18.20;32.30
27823;DHT22;29019;47.630;8.262;2023-02-15T16:21:57;18.40;32.20
27823;DHT22;29019;47.630;8.262;2023-02-15T16:29:58;18.60;32.00
27823;DHT22;29019;47.630;8.262;2023-02-15T16:34:16;18.70;32.00
27823;DHT22;29019;47.630;8.262;2023-02-15T16:38:24;18.80;31.90
27823;DHT22;29019;47.630;8.262;2023-02-15T16:42:27;18.90;31.90
27823;DHT22;29019;47.630;8.262;2023-02-15T16:46:30;19.00;31.90
27823;DHT22;29019;47.630;8.262;2023-02-15T16:50:34;19.00;31.80
27823;DHT22;29019;47.630;8.262;2023-02-15T16:54:35;19.10;31.90
27823;DHT22;29019;47.630;8.262;2023-02-15T16:58:42;19.10;31.80
27823;DHT22;29019;47.630;8.262;2023-02-15T17:02:52;19.20;31.90
27823;DHT22;29019;47.630;8.262;2023-02-15T17:15:03;19.40;31.70
27823;DHT22;29019;47.630;8.262;2023-02-15T17:23:25;19.50;31.70
27823;DHT22;29019;47.630;8.262;2023-02-15T17:27:27;19.50;31.70
27823;DHT22;29019;47.630;8.262;2023-02-15T17:31:31;19.50;31.60
27823;DHT22;29019;47.630;8.262;2023-02-15T17:35:33;19.60;31.60
27823;DHT22;29019;47.630;8.262;2023-02-15T17:39:33;19.60;31.60
27823;DHT22;29019;47.630;8.262;2023-02-15T17:43:34;19.60;31.60
27823;DHT22;29019;47.630;8.262;2023-02-15T17:47:34;19.60;31.50
27823;DHT22;29019;47.630;8.262;2023-02-15T17:51:34;19.70;31.50
27823;DHT22;29019;47.630;8.262;2023-02-15T17:55:35;19.70;32.10
27823;DHT22;29019;47.630;8.262;2023-02-15T17:59:38;19.70;31.50
27823;DHT22;29019;47.630;8.262;2023-02-15T18:03:56;19.70;31.50
27823;DHT22;29019;47.630;8.262;2023-02-15T18:08:16;19.70;31.50
27823;DHT22;29019;47.630;8.262;2023-02-15T18:12:36;19.80;31.50
27823;DHT22;29019;47.630;8.262;2023-02-15T18:16:38;19.80;31.50
27823;DHT22;29019;47.630;8.262;2023-02-15T18:20:41;19.80;31.50
27823;DHT22;29019;47.630;8.262;2023-02-15T18:24:42;19.80;31.50
27823;DHT22;29019;47.630;8.262;2023-02-15T18:28:43;19.80;31.40
27823;DHT22;29019;47.630;8.262;2023-02-15T18:32:43;19.90;31.50
27823;DHT22;29019;47.630;8.262;2023-02-15T18:36:45;19.80;31.40
27823;DHT22;29019;47.630;8.262;2023-02-15T18:40:45;19.90;31.40
27823;DHT22;29019;47.630;8.262;2023-02-15T18:44:46;19.90;31.40
27823;DHT22;29019;47.630;8.262;2023-02-15T18:48:46;19.90;31.40
27823;DHT22;29019;47.630;8.262;2023-02-15T18:52:47;19.90;31.40
27823;DHT22;29019;47.630;8.262;2023-02-15T18:56:54;19.90;31.30
27823;DHT22;29019;47.630;8.262;2023-02-15T19:00:55;19.40;28.80
27823;DHT22;29019;47.630;8.262;2023-02-15T19:04:58;19.00;30.00
27823;DHT22;29019;47.630;8.262;2023-02-15T19:08:58;18.90;30.60
27823;DHT22;29019;47.630;8.262;2023-02-15T19:12:58;19.10;31.10
27823;DHT22;29019;47.630;8.262;2023-02-15T19:16:59;19.30;30.90
27823;DHT22;29019;47.630;8.262;2023-02-15T19:20:59;19.50;30.60
27823;DHT22;29019;47.630;8.262;2023-02-15T19:25:00;19.70;30.50
27823;DHT22;29019;47.630;8.262;2023-02-15T19:29:01;19.90;30.50
27823;DHT22;29019;47.630;8.262;2023-02-15T19:33:02;20.00;30.60
27823;DHT22;29019;47.630;8.262;2023-02-15T19:37:04;20.10;30.60
27823;DHT22;29019;47.630;8.262;2023-02-15T19:41:06;20.20;30.70
27823;DHT22;29019;47.630;8.262;2023-02-15T19:45:14;20.20;30.70
27823;DHT22;29019;47.630;8.262;2023-02-15T19:49:15;20.30;30.70
27823;DHT22;29019;47.630;8.262;2023-02-15T19:53:20;20.40;30.90
27823;DHT22;29019;47.630;8.262;2023-02-15T19:57:21;20.40;30.90
27823;DHT22;29019;47.630;8.262;2023-02-15T20:01:23;20.40;31.00
27823;DHT22;29019;47.630;8.262;2023-02-15T20:05:25;20.50;31.00
27823;DHT22;29019;47.630;8.262;2023-02-15T20:09:30;20.50;30.80
27823;DHT22;29019;47.630;8.262;2023-02-15T20:13:31;20.50;31.10
27823;DHT22;29019;47.630;8.262;2023-02-15T20:17:31;20.40;31.10
27823;DHT22;29019;47.630;8.262;2023-02-15T20:21:32;20.40;31.10
27823;DHT22;29019;47.630;8.262;2023-02-15T20:25:32;20.40;31.30
27823;DHT22;29019;47.630;8.262;2023-02-15T20:29:33;20.40;31.30
27823;DHT22;29019;47.630;8.262;2023-02-15T20:33:33;20.40;31.40
27823;DHT22;29019;47.630;8.262;2023-02-15T20:37:34;20.40;31.50
27823;DHT22;29019;47.630;8.262;2023-02-15T20:41:34;20.50;31.70
27823;DHT22;29019;47.630;8.262;2023-02-15T20:45:35;20.50;31.80
27823;DHT22;29019;47.630;8.262;2023-02-15T20:49:35;20.50;31.80
27823;DHT22;29019;47.630;8.262;2023-02-15T20:53:35;20.50;31.80
27823;DHT22;29019;47.630;8.262;2023-02-15T20:57:36;20.50;31.70
27823;DHT22;29019;47.630;8.262;2023-02-15T21:01:36;20.60;31.80
27823;DHT22;29019;47.630;8.262;2023-02-15T21:05:37;20.60;31.90
27823;DHT22;29019;47.630;8.262;2023-02-15T21:09:37;20.50;32.10
27823;DHT22;29019;47.630;8.262;2023-02-15T21:13:38;20.60;31.90
27823;DHT22;29019;47.630;8.262;2023-02-15T21:17:39;20.60;31.70
27823;DHT22;29019;47.630;8.262;2023-02-15T21:21:39;20.70;31.80
27823;DHT22;29019;47.630;8.262;2023-02-15T21:25:40;20.80;31.70
27823;DHT22;29019;47.630;8.262;2023-02-15T21:29:41;20.70;31.70
27823;DHT22;29019;47.630;8.262;2023-02-15T21:33:41;20.70;31.70
27823;DHT22;29019;47.630;8.262;2023-02-15T21:37:42;20.80;32.20
27823;DHT22;29019;47.630;8.262;2023-02-15T21:41:44;20.80;32.20
27823;DHT22;29019;47.630;8.262;2023-02-15T21:46:16;20.70;32.00
27823;DHT22;29019;47.630;8.262;2023-02-15T21:50:36;20.70;32.00
27823;DHT22;29019;47.630;8.262;2023-02-15T21:54:55;20.60;32.00
27823;DHT22;29019;47.630;8.262;2023-02-15T21:58:56;20.70;32.00
27823;DHT22;29019;47.630;8.262;2023-02-15T22:02:57;20.60;31.90
27823;DHT22;29019;47.630;8.262;2023-02-15T22:06:58;20.60;32.00
27823;DHT22;29019;47.630;8.262;2023-02-15T22:10:58;20.60;32.00
27823;DHT22;29019;47.630;8.262;2023-02-15T22:14:59;20.60;31.90
27823;DHT22;29019;47.630;8.262;2023-02-15T22:19:00;20.60;31.90
27823;DHT22;29019;47.630;8.262;2023-02-15T22:23:01;20.60;31.90
27823;DHT22;29019;47.630;8.262;2023-02-15T22:27:01;20.60;31.90
27823;DHT22;29019;47.630;8.262;2023-02-15T22:31:02;20.50;31.90
27823;DHT22;29019;47.630;8.262;2023-02-15T22:35:05;20.50;31.90
27823;DHT22;29019;47.630;8.262;2023-02-15T22:39:05;20.50;31.90
27823;DHT22;29019;47.630;8.262;2023-02-15T22:43:06;20.40;31.90
27823;DHT22;29019;47.630;8.262;2023-02-15T22:47:16;20.40;31.90
27823;DHT22;29019;47.630;8.262;2023-02-15T22:51:20;20.40;31.90
27823;DHT22;29019;47.630;8.262;2023-02-15T22:55:21;20.30;31.80
27823;DHT22;29019;47.630;8.262;2023-02-15T22:59:26;20.30;31.90
27823;DHT22;29019;47.630;8.262;2023-02-15T23:03:29;20.20;31.80
27823;DHT22;29019;47.630;8.262;2023-02-15T23:07:30;20.20;31.90
27823;DHT22;29019;47.630;8.262;2023-02-15T23:11:30;20.10;31.90
27823;DHT22;29019;47.630;8.262;2023-02-15T23:15:31;20.10;31.90
27823;DHT22;29019;47.630;8.262;2023-02-15T23:19:31;20.00;31.90
27823;DHT22;29019;47.630;8.262;2023-02-15T23:23:33;19.90;31.90
27823;DHT22;29019;47.630;8.262;2023-02-15T23:27:34;19.90;31.90
27823;DHT22;29019;47.630;8.262;2023-02-15T23:31:53;19.90;32.40
27823;DHT22;29019;47.630;8.262;2023-02-15T23:35:53;19.80;31.80
27823;DHT22;29019;47.630;8.262;2023-02-15T23:39:54;19.80;31.90
27823;DHT22;29019;47.630;8.262;2023-02-15T23:44:13;19.70;31.90
27823;DHT22;29019;47.630;8.262;2023-02-15T23:48:21;19.70;31.90
27823;DHT22;29019;47.630;8.262;2023-02-15T23:52:31;19.60;31.90
27823;DHT22;29019;47.630;8.262;2023-02-15T23:56:31;19.60;31.90
